Terminal Aerodrome Forecast
Issued by NWS

Home | Current Version | Previous Version | Text Only | Print | Product List | Glossary On
Versions: 1 2 3 4 5 6 7 8 9 10 11 12 13
000
FTUS42 KJAX 220520
TAFVQQ
TAF
KVQQ 220520Z 2206/2306 07003KT P6SM FEW030 BKN250
      TEMPO 2206/2210 4SM BR
     FM221300 06004KT P6SM SCT020 BKN200
     FM221600 06009KT P6SM SCT030 SCT070
     FM222000 07012KT P6SM VCSH BKN045=

USA.gov is the U.S. government's official web portal to all federal, state and local government web resources and services.